Glenn Dale, Maryland
Current Conditions -  °F | °C
As of 2:45 PM on Wednesday 17 Dec 2014 (Local Time) from KCGS Reporting Station
Clear Clear  
Wind Chill: 52°   Ceiling: Unl
Heat Index: 52°   Visibility: 10mi
Dew Point: 30°   Wind: 12mph
Humidity: 44%   Direction: 290°WNW
Pressure: 29.97"   Gusts: 24mph
Location:  38.99°N, 76.82°W
Report Text: KCGS 171945Z AUTO 29010G21KT 10SM CLR 11/M01 A2997 RMK AO1
Loading
Personal Weather Stations






























Interactive Weather Map New forecast layout! Learn more

10-Day Weather Forecast

Advertisements
Track Severe Weather on mobile